sensor_id;sensor_type;location;lat;lon;timestamp;temperature;humidity
8420;DHT22;4247;48.550;8.822;2023-03-17T00:00:18;4.20;99.90
8420;DHT22;4247;48.550;8.822;2023-03-17T00:02:47;4.20;99.90
8420;DHT22;4247;48.550;8.822;2023-03-17T00:05:17;4.20;99.90
8420;DHT22;4247;48.550;8.822;2023-03-17T00:07:45;4.20;99.90
8420;DHT22;4247;48.550;8.822;2023-03-17T00:10:17;4.20;99.90
8420;DHT22;4247;48.550;8.822;2023-03-17T00:12:44;4.20;99.90
8420;DHT22;4247;48.550;8.822;2023-03-17T00:15:12;4.20;99.90
8420;DHT22;4247;48.550;8.822;2023-03-17T00:17:40;4.20;99.90
8420;DHT22;4247;48.550;8.822;2023-03-17T00:20:15;4.20;99.90
8420;DHT22;4247;48.550;8.822;2023-03-17T00:22:44;4.20;99.90
8420;DHT22;4247;48.550;8.822;2023-03-17T00:25:18;4.20;99.90
8420;DHT22;4247;48.550;8.822;2023-03-17T00:27:45;4.20;99.90
8420;DHT22;4247;48.550;8.822;2023-03-17T00:30:13;4.30;99.90
8420;DHT22;4247;48.550;8.822;2023-03-17T00:32:39;4.30;99.90
8420;DHT22;4247;48.550;8.822;2023-03-17T00:35:15;4.30;99.90
8420;DHT22;4247;48.550;8.822;2023-03-17T00:37:43;4.30;99.90
8420;DHT22;4247;48.550;8.822;2023-03-17T00:40:14;4.30;99.90
8420;DHT22;4247;48.550;8.822;2023-03-17T00:42:41;4.30;99.90
8420;DHT22;4247;48.550;8.822;2023-03-17T00:45:09;4.30;99.90
8420;DHT22;4247;48.550;8.822;2023-03-17T00:47:36;4.30;99.90
8420;DHT22;4247;48.550;8.822;2023-03-17T00:50:04;4.30;99.90
8420;DHT22;4247;48.550;8.822;2023-03-17T00:52:33;4.30;99.90
8420;DHT22;4247;48.550;8.822;2023-03-17T00:55:00;4.40;99.90
8420;DHT22;4247;48.550;8.822;2023-03-17T00:57:27;4.40;99.90
8420;DHT22;4247;48.550;8.822;2023-03-17T00:59:54;4.40;99.90
8420;DHT22;4247;48.550;8.822;2023-03-17T01:02:21;4.40;99.90
8420;DHT22;4247;48.550;8.822;2023-03-17T01:04:48;4.40;99.90
8420;DHT22;4247;48.550;8.822;2023-03-17T01:07:15;4.50;99.90
8420;DHT22;4247;48.550;8.822;2023-03-17T01:09:44;4.50;99.90
8420;DHT22;4247;48.550;8.822;2023-03-17T01:12:11;4.50;99.90
8420;DHT22;4247;48.550;8.822;2023-03-17T01:14:39;4.50;99.90
8420;DHT22;4247;48.550;8.822;2023-03-17T01:17:11;4.60;99.90
8420;DHT22;4247;48.550;8.822;2023-03-17T01:19:39;4.60;99.90
8420;DHT22;4247;48.550;8.822;2023-03-17T01:22:06;4.60;99.90
8420;DHT22;4247;48.550;8.822;2023-03-17T01:24:33;4.60;99.90
8420;DHT22;4247;48.550;8.822;2023-03-17T01:27:02;4.60;99.90
8420;DHT22;4247;48.550;8.822;2023-03-17T01:29:29;4.50;99.90
8420;DHT22;4247;48.550;8.822;2023-03-17T01:31:56;4.50;99.90
8420;DHT22;4247;48.550;8.822;2023-03-17T01:34:23;4.60;99.90
8420;DHT22;4247;48.550;8.822;2023-03-17T01:36:50;4.60;99.90
8420;DHT22;4247;48.550;8.822;2023-03-17T01:39:17;4.60;99.90
8420;DHT22;4247;48.550;8.822;2023-03-17T01:41:44;4.60;99.90
8420;DHT22;4247;48.550;8.822;2023-03-17T01:44:15;4.60;99.90
8420;DHT22;4247;48.550;8.822;2023-03-17T01:46:43;4.60;99.90
8420;DHT22;4247;48.550;8.822;2023-03-17T01:49:19;4.60;99.90
8420;DHT22;4247;48.550;8.822;2023-03-17T01:51:55;4.60;99.90
8420;DHT22;4247;48.550;8.822;2023-03-17T01:54:28;4.70;99.90
8420;DHT22;4247;48.550;8.822;2023-03-17T01:56:59;4.60;99.90
8420;DHT22;4247;48.550;8.822;2023-03-17T01:59:34;4.60;99.90
8420;DHT22;4247;48.550;8.822;2023-03-17T02:02:05;4.60;99.90
8420;DHT22;4247;48.550;8.822;2023-03-17T02:04:34;4.60;99.90
8420;DHT22;4247;48.550;8.822;2023-03-17T02:07:01;4.60;99.90
8420;DHT22;4247;48.550;8.822;2023-03-17T02:09:30;4.50;99.90
8420;DHT22;4247;48.550;8.822;2023-03-17T02:11:59;4.60;99.90
8420;DHT22;4247;48.550;8.822;2023-03-17T02:14:27;4.50;99.90
8420;DHT22;4247;48.550;8.822;2023-03-17T02:16:56;4.50;99.90
8420;DHT22;4247;48.550;8.822;2023-03-17T02:19:23;4.50;99.90
8420;DHT22;4247;48.550;8.822;2023-03-17T02:21:52;4.50;99.90
8420;DHT22;4247;48.550;8.822;2023-03-17T02:24:24;4.50;99.90
8420;DHT22;4247;48.550;8.822;2023-03-17T02:26:54;4.40;99.90
8420;DHT22;4247;48.550;8.822;2023-03-17T02:29:23;4.40;99.90
8420;DHT22;4247;48.550;8.822;2023-03-17T02:31:50;4.40;99.90
8420;DHT22;4247;48.550;8.822;2023-03-17T02:34:18;4.40;99.90
8420;DHT22;4247;48.550;8.822;2023-03-17T02:36:45;4.40;99.90
8420;DHT22;4247;48.550;8.822;2023-03-17T02:39:13;4.40;99.90
8420;DHT22;4247;48.550;8.822;2023-03-17T02:41:39;4.40;99.90
8420;DHT22;4247;48.550;8.822;2023-03-17T02:44:07;4.40;99.90
8420;DHT22;4247;48.550;8.822;2023-03-17T02:46:34;4.40;99.90
8420;DHT22;4247;48.550;8.822;2023-03-17T02:49:01;4.40;99.90
8420;DHT22;4247;48.550;8.822;2023-03-17T02:51:28;4.40;99.90
8420;DHT22;4247;48.550;8.822;2023-03-17T02:53:55;4.40;99.90
8420;DHT22;4247;48.550;8.822;2023-03-17T02:56:23;4.40;99.90
8420;DHT22;4247;48.550;8.822;2023-03-17T02:58:50;4.40;99.90
8420;DHT22;4247;48.550;8.822;2023-03-17T03:01:17;4.50;99.90
8420;DHT22;4247;48.550;8.822;2023-03-17T03:03:43;4.50;99.90
8420;DHT22;4247;48.550;8.822;2023-03-17T03:06:10;4.50;99.90
8420;DHT22;4247;48.550;8.822;2023-03-17T03:08:37;4.60;99.90
8420;DHT22;4247;48.550;8.822;2023-03-17T03:11:04;4.60;99.90
8420;DHT22;4247;48.550;8.822;2023-03-17T03:13:32;4.60;99.90
8420;DHT22;4247;48.550;8.822;2023-03-17T03:15:59;4.60;99.90
8420;DHT22;4247;48.550;8.822;2023-03-17T03:18:25;4.60;99.90
8420;DHT22;4247;48.550;8.822;2023-03-17T03:20:52;4.60;99.90
8420;DHT22;4247;48.550;8.822;2023-03-17T03:23:19;4.60;99.90
8420;DHT22;4247;48.550;8.822;2023-03-17T03:25:46;4.60;99.90
8420;DHT22;4247;48.550;8.822;2023-03-17T03:28:13;4.50;99.90
8420;DHT22;4247;48.550;8.822;2023-03-17T03:30:41;4.50;99.90
8420;DHT22;4247;48.550;8.822;2023-03-17T03:33:10;4.50;99.90
8420;DHT22;4247;48.550;8.822;2023-03-17T03:35:37;4.50;99.90
8420;DHT22;4247;48.550;8.822;2023-03-17T03:38:04;4.40;99.90
8420;DHT22;4247;48.550;8.822;2023-03-17T03:40:31;4.40;99.90
8420;DHT22;4247;48.550;8.822;2023-03-17T03:42:58;4.40;99.90
8420;DHT22;4247;48.550;8.822;2023-03-17T03:45:25;4.30;99.90
8420;DHT22;4247;48.550;8.822;2023-03-17T03:47:53;4.30;99.90
8420;DHT22;4247;48.550;8.822;2023-03-17T03:50:20;4.20;99.90
8420;DHT22;4247;48.550;8.822;2023-03-17T03:52:47;4.20;99.90
8420;DHT22;4247;48.550;8.822;2023-03-17T03:55:14;4.20;99.90
8420;DHT22;4247;48.550;8.822;2023-03-17T03:57:41;4.20;99.90
8420;DHT22;4247;48.550;8.822;2023-03-17T04:00:09;4.10;99.90
8420;DHT22;4247;48.550;8.822;2023-03-17T04:02:38;4.10;99.90
8420;DHT22;4247;48.550;8.822;2023-03-17T04:05:07;4.10;99.90
8420;DHT22;4247;48.550;8.822;2023-03-17T04:07:34;4.00;99.90
8420;DHT22;4247;48.550;8.822;2023-03-17T04:10:01;4.00;99.90
8420;DHT22;4247;48.550;8.822;2023-03-17T04:12:27;4.00;99.90
8420;DHT22;4247;48.550;8.822;2023-03-17T04:14:54;4.00;99.90
8420;DHT22;4247;48.550;8.822;2023-03-17T04:17:21;3.90;99.90
8420;DHT22;4247;48.550;8.822;2023-03-17T04:19:48;3.90;99.90
8420;DHT22;4247;48.550;8.822;2023-03-17T04:22:16;3.80;99.90
8420;DHT22;4247;48.550;8.822;2023-03-17T04:24:42;3.80;99.90
8420;DHT22;4247;48.550;8.822;2023-03-17T04:27:09;3.70;99.90
8420;DHT22;4247;48.550;8.822;2023-03-17T04:29:36;3.70;99.90
8420;DHT22;4247;48.550;8.822;2023-03-17T04:32:03;3.70;99.90
8420;DHT22;4247;48.550;8.822;2023-03-17T04:34:31;3.60;99.90
8420;DHT22;4247;48.550;8.822;2023-03-17T04:36:57;3.60;99.90
8420;DHT22;4247;48.550;8.822;2023-03-17T04:39:25;3.60;99.90
8420;DHT22;4247;48.550;8.822;2023-03-17T04:41:52;3.60;99.90
8420;DHT22;4247;48.550;8.822;2023-03-17T04:44:19;3.60;99.90
8420;DHT22;4247;48.550;8.822;2023-03-17T04:46:45;3.50;99.90
8420;DHT22;4247;48.550;8.822;2023-03-17T04:49:12;3.50;99.90
8420;DHT22;4247;48.550;8.822;2023-03-17T04:51:39;3.50;99.90
8420;DHT22;4247;48.550;8.822;2023-03-17T04:54:06;3.40;99.90
8420;DHT22;4247;48.550;8.822;2023-03-17T04:56:34;3.40;99.90
8420;DHT22;4247;48.550;8.822;2023-03-17T04:59:02;3.40;99.90
8420;DHT22;4247;48.550;8.822;2023-03-17T05:01:29;3.30;99.90
8420;DHT22;4247;48.550;8.822;2023-03-17T05:03:56;3.30;99.90
8420;DHT22;4247;48.550;8.822;2023-03-17T05:06:22;3.30;99.90
8420;DHT22;4247;48.550;8.822;2023-03-17T05:08:49;3.30;99.90
8420;DHT22;4247;48.550;8.822;2023-03-17T05:11:17;3.30;99.90
8420;DHT22;4247;48.550;8.822;2023-03-17T05:13:45;3.30;99.90
8420;DHT22;4247;48.550;8.822;2023-03-17T05:16:12;3.30;99.90
8420;DHT22;4247;48.550;8.822;2023-03-17T05:18:38;3.20;99.90
8420;DHT22;4247;48.550;8.822;2023-03-17T05:21:06;3.20;99.90
8420;DHT22;4247;48.550;8.822;2023-03-17T05:23:33;3.20;99.90
8420;DHT22;4247;48.550;8.822;2023-03-17T05:26:00;3.20;99.90
8420;DHT22;4247;48.550;8.822;2023-03-17T05:28:26;3.20;99.90
8420;DHT22;4247;48.550;8.822;2023-03-17T05:30:55;3.20;99.90
8420;DHT22;4247;48.550;8.822;2023-03-17T05:33:22;3.20;99.90
8420;DHT22;4247;48.550;8.822;2023-03-17T05:35:49;3.20;99.90
8420;DHT22;4247;48.550;8.822;2023-03-17T05:38:16;3.20;99.90
8420;DHT22;4247;48.550;8.822;2023-03-17T05:40:43;3.20;99.90
8420;DHT22;4247;48.550;8.822;2023-03-17T05:43:10;3.30;99.90
8420;DHT22;4247;48.550;8.822;2023-03-17T05:45:37;3.40;99.90
8420;DHT22;4247;48.550;8.822;2023-03-17T05:48:05;3.50;99.90
8420;DHT22;4247;48.550;8.822;2023-03-17T05:50:32;3.50;99.90
8420;DHT22;4247;48.550;8.822;2023-03-17T05:52:59;3.60;99.90
8420;DHT22;4247;48.550;8.822;2023-03-17T05:55:26;3.70;99.90
8420;DHT22;4247;48.550;8.822;2023-03-17T05:57:53;3.70;99.90
8420;DHT22;4247;48.550;8.822;2023-03-17T06:00:20;3.80;99.90
8420;DHT22;4247;48.550;8.822;2023-03-17T06:02:47;3.80;99.90
8420;DHT22;4247;48.550;8.822;2023-03-17T06:05:16;3.80;99.90
8420;DHT22;4247;48.550;8.822;2023-03-17T06:07:43;3.80;99.90
8420;DHT22;4247;48.550;8.822;2023-03-17T06:10:11;3.90;99.90
8420;DHT22;4247;48.550;8.822;2023-03-17T06:12:38;3.90;99.90
8420;DHT22;4247;48.550;8.822;2023-03-17T06:15:06;3.90;99.90
8420;DHT22;4247;48.550;8.822;2023-03-17T06:17:34;3.90;99.90
8420;DHT22;4247;48.550;8.822;2023-03-17T06:20:00;3.90;99.90
8420;DHT22;4247;48.550;8.822;2023-03-17T06:22:29;4.00;99.90
8420;DHT22;4247;48.550;8.822;2023-03-17T06:24:57;4.00;99.90
8420;DHT22;4247;48.550;8.822;2023-03-17T06:27:23;4.00;99.90
8420;DHT22;4247;48.550;8.822;2023-03-17T06:29:50;4.00;99.90
8420;DHT22;4247;48.550;8.822;2023-03-17T06:32:17;4.10;99.90
8420;DHT22;4247;48.550;8.822;2023-03-17T06:34:44;4.10;99.90
8420;DHT22;4247;48.550;8.822;2023-03-17T06:37:11;4.10;99.90
8420;DHT22;4247;48.550;8.822;2023-03-17T06:39:39;4.20;99.90
8420;DHT22;4247;48.550;8.822;2023-03-17T06:42:06;4.20;99.90
8420;DHT22;4247;48.550;8.822;2023-03-17T06:44:33;4.30;99.90
8420;DHT22;4247;48.550;8.822;2023-03-17T06:47:00;4.40;99.90
8420;DHT22;4247;48.550;8.822;2023-03-17T06:49:27;4.40;99.90
8420;DHT22;4247;48.550;8.822;2023-03-17T06:51:54;4.50;99.90
8420;DHT22;4247;48.550;8.822;2023-03-17T06:54:21;4.60;99.90
8420;DHT22;4247;48.550;8.822;2023-03-17T06:56:51;4.70;99.90
8420;DHT22;4247;48.550;8.822;2023-03-17T06:59:20;4.80;99.90
8420;DHT22;4247;48.550;8.822;2023-03-17T07:01:47;5.00;99.90
8420;DHT22;4247;48.550;8.822;2023-03-17T07:04:14;5.10;99.90
8420;DHT22;4247;48.550;8.822;2023-03-17T07:06:41;5.20;99.90
8420;DHT22;4247;48.550;8.822;2023-03-17T07:09:09;5.30;99.90
8420;DHT22;4247;48.550;8.822;2023-03-17T07:11:36;5.40;99.90
8420;DHT22;4247;48.550;8.822;2023-03-17T07:14:04;5.50;99.90
8420;DHT22;4247;48.550;8.822;2023-03-17T07:16:32;5.60;99.90
8420;DHT22;4247;48.550;8.822;2023-03-17T07:18:59;5.80;99.90
8420;DHT22;4247;48.550;8.822;2023-03-17T07:21:26;5.90;99.90
8420;DHT22;4247;48.550;8.822;2023-03-17T07:23:53;5.90;99.90
8420;DHT22;4247;48.550;8.822;2023-03-17T07:26:20;6.00;99.90
8420;DHT22;4247;48.550;8.822;2023-03-17T07:28:47;6.10;99.90
8420;DHT22;4247;48.550;8.822;2023-03-17T07:31:15;6.20;99.90
8420;DHT22;4247;48.550;8.822;2023-03-17T07:33:42;6.20;99.90
8420;DHT22;4247;48.550;8.822;2023-03-17T07:36:09;6.30;99.90
8420;DHT22;4247;48.550;8.822;2023-03-17T07:38:35;6.30;99.90
8420;DHT22;4247;48.550;8.822;2023-03-17T07:41:03;6.30;99.90
8420;DHT22;4247;48.550;8.822;2023-03-17T07:43:34;6.40;99.90
8420;DHT22;4247;48.550;8.822;2023-03-17T07:46:01;6.30;99.90
8420;DHT22;4247;48.550;8.822;2023-03-17T07:48:30;6.30;99.90
8420;DHT22;4247;48.550;8.822;2023-03-17T07:50:58;6.40;99.90
8420;DHT22;4247;48.550;8.822;2023-03-17T07:53:24;6.40;99.90
8420;DHT22;4247;48.550;8.822;2023-03-17T07:55:51;6.40;99.90
8420;DHT22;4247;48.550;8.822;2023-03-17T07:58:18;6.40;99.90
8420;DHT22;4247;48.550;8.822;2023-03-17T08:00:46;6.50;99.90
8420;DHT22;4247;48.550;8.822;2023-03-17T08:03:13;6.50;99.90
8420;DHT22;4247;48.550;8.822;2023-03-17T08:05:41;6.60;99.90
8420;DHT22;4247;48.550;8.822;2023-03-17T08:08:09;6.70;99.90
8420;DHT22;4247;48.550;8.822;2023-03-17T08:10:37;6.70;99.90
8420;DHT22;4247;48.550;8.822;2023-03-17T08:13:04;6.90;99.90
8420;DHT22;4247;48.550;8.822;2023-03-17T08:15:30;6.90;99.90
8420;DHT22;4247;48.550;8.822;2023-03-17T08:17:57;7.00;99.90
8420;DHT22;4247;48.550;8.822;2023-03-17T08:20:25;7.10;99.90
8420;DHT22;4247;48.550;8.822;2023-03-17T08:22:53;7.20;99.90
8420;DHT22;4247;48.550;8.822;2023-03-17T08:25:20;7.30;99.90
8420;DHT22;4247;48.550;8.822;2023-03-17T08:27:47;7.40;99.90
8420;DHT22;4247;48.550;8.822;2023-03-17T08:30:14;7.40;99.90
8420;DHT22;4247;48.550;8.822;2023-03-17T08:32:41;7.50;99.90
8420;DHT22;4247;48.550;8.822;2023-03-17T08:35:10;7.60;99.90
8420;DHT22;4247;48.550;8.822;2023-03-17T08:37:37;7.60;99.90
8420;DHT22;4247;48.550;8.822;2023-03-17T08:40:05;7.70;99.90
8420;DHT22;4247;48.550;8.822;2023-03-17T08:42:34;7.80;99.90
8420;DHT22;4247;48.550;8.822;2023-03-17T08:45:02;7.90;99.90
8420;DHT22;4247;48.550;8.822;2023-03-17T08:47:31;8.00;99.90
8420;DHT22;4247;48.550;8.822;2023-03-17T08:49:58;8.00;99.90
8420;DHT22;4247;48.550;8.822;2023-03-17T08:52:25;8.10;99.90
8420;DHT22;4247;48.550;8.822;2023-03-17T08:54:52;8.20;99.90
8420;DHT22;4247;48.550;8.822;2023-03-17T08:57:20;8.30;99.90
8420;DHT22;4247;48.550;8.822;2023-03-17T08:59:47;8.40;99.90
8420;DHT22;4247;48.550;8.822;2023-03-17T09:02:14;8.50;99.90
8420;DHT22;4247;48.550;8.822;2023-03-17T09:04:41;8.60;99.90
8420;DHT22;4247;48.550;8.822;2023-03-17T09:07:08;8.70;99.90
8420;DHT22;4247;48.550;8.822;2023-03-17T09:09:35;8.80;99.90
8420;DHT22;4247;48.550;8.822;2023-03-17T09:12:04;8.90;99.90
8420;DHT22;4247;48.550;8.822;2023-03-17T09:14:33;8.90;99.90
8420;DHT22;4247;48.550;8.822;2023-03-17T09:16:59;8.90;99.90
8420;DHT22;4247;48.550;8.822;2023-03-17T09:19:26;9.00;99.90
8420;DHT22;4247;48.550;8.822;2023-03-17T09:21:53;9.00;99.90
8420;DHT22;4247;48.550;8.822;2023-03-17T09:24:20;9.00;99.90
8420;DHT22;4247;48.550;8.822;2023-03-17T09:26:46;9.10;99.90
8420;DHT22;4247;48.550;8.822;2023-03-17T09:29:13;9.10;99.90
8420;DHT22;4247;48.550;8.822;2023-03-17T09:31:41;9.30;99.90
8420;DHT22;4247;48.550;8.822;2023-03-17T09:34:09;9.40;99.90
8420;DHT22;4247;48.550;8.822;2023-03-17T09:36:36;9.60;99.90
8420;DHT22;4247;48.550;8.822;2023-03-17T09:39:03;9.70;99.90
8420;DHT22;4247;48.550;8.822;2023-03-17T09:41:57;9.80;99.60
8420;DHT22;4247;48.550;8.822;2023-03-17T09:44:34;10.00;99.20
8420;DHT22;4247;48.550;8.822;2023-03-17T09:47:14;10.10;98.60
8420;DHT22;4247;48.550;8.822;2023-03-17T09:49:47;10.20;99.30
8420;DHT22;4247;48.550;8.822;2023-03-17T09:52:24;10.40;98.70
8420;DHT22;4247;48.550;8.822;2023-03-17T09:54:53;10.60;97.60
8420;DHT22;4247;48.550;8.822;2023-03-17T09:57:24;10.80;98.10
8420;DHT22;4247;48.550;8.822;2023-03-17T09:59:58;10.90;98.10
8420;DHT22;4247;48.550;8.822;2023-03-17T10:02:33;11.10;97.90
8420;DHT22;4247;48.550;8.822;2023-03-17T10:05:12;11.20;98.30
8420;DHT22;4247;48.550;8.822;2023-03-17T10:07:44;11.40;98.40
8420;DHT22;4247;48.550;8.822;2023-03-17T10:10:14;11.50;98.70
8420;DHT22;4247;48.550;8.822;2023-03-17T10:12:46;11.70;98.90
8420;DHT22;4247;48.550;8.822;2023-03-17T10:15:32;11.80;98.80
8420;DHT22;4247;48.550;8.822;2023-03-17T10:18:08;12.00;99.50
8420;DHT22;4247;48.550;8.822;2023-03-17T10:20:47;12.10;99.00
8420;DHT22;4247;48.550;8.822;2023-03-17T10:23:18;12.20;98.90
8420;DHT22;4247;48.550;8.822;2023-03-17T10:25:46;12.30;98.80
8420;DHT22;4247;48.550;8.822;2023-03-17T10:28:23;12.40;99.30
8420;DHT22;4247;48.550;8.822;2023-03-17T10:33:18;12.40;98.90
8420;DHT22;4247;48.550;8.822;2023-03-17T10:35:45;12.50;99.20
8420;DHT22;4247;48.550;8.822;2023-03-17T10:38:17;12.50;99.20
8420;DHT22;4247;48.550;8.822;2023-03-17T10:40:46;12.60;98.80
8420;DHT22;4247;48.550;8.822;2023-03-17T10:43:20;12.60;98.20
8420;DHT22;4247;48.550;8.822;2023-03-17T10:45:57;12.70;98.10
8420;DHT22;4247;48.550;8.822;2023-03-17T10:48:26;12.80;97.50
8420;DHT22;4247;48.550;8.822;2023-03-17T10:50:57;12.90;97.60
8420;DHT22;4247;48.550;8.822;2023-03-17T10:53:25;13.10;96.80
8420;DHT22;4247;48.550;8.822;2023-03-17T10:55:57;13.10;97.90
8420;DHT22;4247;48.550;8.822;2023-03-17T10:58:37;13.30;97.70
8420;DHT22;4247;48.550;8.822;2023-03-17T11:01:16;13.30;97.10
8420;DHT22;4247;48.550;8.822;2023-03-17T11:03:47;13.50;96.80
8420;DHT22;4247;48.550;8.822;2023-03-17T11:06:15;13.60;97.80
8420;DHT22;4247;48.550;8.822;2023-03-17T11:08:48;13.70;95.90
8420;DHT22;4247;48.550;8.822;2023-03-17T11:11:23;13.80;96.80
8420;DHT22;4247;48.550;8.822;2023-03-17T11:14:00;13.90;96.60
8420;DHT22;4247;48.550;8.822;2023-03-17T11:16:27;14.00;96.80
8420;DHT22;4247;48.550;8.822;2023-03-17T11:18:58;14.10;95.80
8420;DHT22;4247;48.550;8.822;2023-03-17T11:21:28;14.20;94.70
8420;DHT22;4247;48.550;8.822;2023-03-17T11:24:05;14.30;95.50
8420;DHT22;4247;48.550;8.822;2023-03-17T11:26:46;14.40;95.60
8420;DHT22;4247;48.550;8.822;2023-03-17T11:29:24;14.40;96.00
8420;DHT22;4247;48.550;8.822;2023-03-17T11:32:01;14.60;95.50
8420;DHT22;4247;48.550;8.822;2023-03-17T11:34:45;14.70;95.30
8420;DHT22;4247;48.550;8.822;2023-03-17T11:37:24;14.70;96.20
8420;DHT22;4247;48.550;8.822;2023-03-17T11:39:58;14.70;95.40
8420;DHT22;4247;48.550;8.822;2023-03-17T11:42:33;14.70;95.00
8420;DHT22;4247;48.550;8.822;2023-03-17T11:45:11;14.80;95.60
8420;DHT22;4247;48.550;8.822;2023-03-17T11:47:50;14.80;96.00
8420;DHT22;4247;48.550;8.822;2023-03-17T11:50:26;14.90;95.00
8420;DHT22;4247;48.550;8.822;2023-03-17T11:53:15;15.00;94.70
8420;DHT22;4247;48.550;8.822;2023-03-17T11:55:48;15.10;94.90
8420;DHT22;4247;48.550;8.822;2023-03-17T11:58:25;15.20;93.20
8420;DHT22;4247;48.550;8.822;2023-03-17T12:00:57;15.20;93.60
8420;DHT22;4247;48.550;8.822;2023-03-17T12:03:32;15.30;94.00
8420;DHT22;4247;48.550;8.822;2023-03-17T12:06:10;15.50;92.70
8420;DHT22;4247;48.550;8.822;2023-03-17T12:08:41;15.60;92.70
8420;DHT22;4247;48.550;8.822;2023-03-17T12:11:15;15.70;92.70
8420;DHT22;4247;48.550;8.822;2023-03-17T12:13:52;15.70;92.70
8420;DHT22;4247;48.550;8.822;2023-03-17T12:16:27;15.80;91.60
8420;DHT22;4247;48.550;8.822;2023-03-17T12:19:02;15.80;92.40
8420;DHT22;4247;48.550;8.822;2023-03-17T12:21:37;15.80;93.40
8420;DHT22;4247;48.550;8.822;2023-03-17T12:24:11;15.80;92.70
8420;DHT22;4247;48.550;8.822;2023-03-17T12:26:46;15.90;93.00
8420;DHT22;4247;48.550;8.822;2023-03-17T12:29:19;16.00;93.10
8420;DHT22;4247;48.550;8.822;2023-03-17T12:31:53;16.00;93.10
8420;DHT22;4247;48.550;8.822;2023-03-17T12:37:45;16.20;93.00
8420;DHT22;4247;48.550;8.822;2023-03-17T12:40:13;16.30;92.60
8420;DHT22;4247;48.550;8.822;2023-03-17T12:42:50;16.30;92.60
8420;DHT22;4247;48.550;8.822;2023-03-17T12:45:28;16.30;89.90
8420;DHT22;4247;48.550;8.822;2023-03-17T12:48:20;16.30;91.60
8420;DHT22;4247;48.550;8.822;2023-03-17T12:51:08;16.40;91.40
8420;DHT22;4247;48.550;8.822;2023-03-17T12:53:40;16.40;90.70
8420;DHT22;4247;48.550;8.822;2023-03-17T12:56:18;16.50;92.10
8420;DHT22;4247;48.550;8.822;2023-03-17T12:58:50;16.60;93.00
8420;DHT22;4247;48.550;8.822;2023-03-17T13:01:29;16.60;91.00
8420;DHT22;4247;48.550;8.822;2023-03-17T13:04:05;16.60;91.80
8420;DHT22;4247;48.550;8.822;2023-03-17T13:06:43;16.70;92.60
8420;DHT22;4247;48.550;8.822;2023-03-17T13:09:42;16.70;92.80
8420;DHT22;4247;48.550;8.822;2023-03-17T13:12:53;16.70;90.70
8420;DHT22;4247;48.550;8.822;2023-03-17T13:15:26;16.70;90.40
8420;DHT22;4247;48.550;8.822;2023-03-17T13:21:11;16.80;90.30
8420;DHT22;4247;48.550;8.822;2023-03-17T13:23:41;16.90;91.80
8420;DHT22;4247;48.550;8.822;2023-03-17T13:26:12;16.90;91.90
8420;DHT22;4247;48.550;8.822;2023-03-17T13:28:43;16.90;91.60
8420;DHT22;4247;48.550;8.822;2023-03-17T13:31:27;16.90;92.00
8420;DHT22;4247;48.550;8.822;2023-03-17T13:33:55;16.90;92.30
8420;DHT22;4247;48.550;8.822;2023-03-17T13:36:35;17.00;92.70
8420;DHT22;4247;48.550;8.822;2023-03-17T13:40:02;17.00;92.60
8420;DHT22;4247;48.550;8.822;2023-03-17T13:42:51;17.00;92.90
8420;DHT22;4247;48.550;8.822;2023-03-17T13:45:37;17.00;93.30
8420;DHT22;4247;48.550;8.822;2023-03-17T13:48:33;17.00;93.10
8420;DHT22;4247;48.550;8.822;2023-03-17T13:51:10;17.00;93.60
8420;DHT22;4247;48.550;8.822;2023-03-17T13:53:42;17.00;93.20
8420;DHT22;4247;48.550;8.822;2023-03-17T13:56:20;17.00;94.00
8420;DHT22;4247;48.550;8.822;2023-03-17T13:59:06;17.00;92.90
8420;DHT22;4247;48.550;8.822;2023-03-17T14:01:39;17.00;93.40
8420;DHT22;4247;48.550;8.822;2023-03-17T14:04:20;17.00;94.60
8420;DHT22;4247;48.550;8.822;2023-03-17T14:06:53;17.00;93.50
8420;DHT22;4247;48.550;8.822;2023-03-17T14:09:32;17.00;93.20
8420;DHT22;4247;48.550;8.822;2023-03-17T14:12:03;17.00;93.30
8420;DHT22;4247;48.550;8.822;2023-03-17T14:14:41;17.00;94.10
8420;DHT22;4247;48.550;8.822;2023-03-17T14:17:13;17.00;93.70
8420;DHT22;4247;48.550;8.822;2023-03-17T14:20:02;17.00;92.50
8420;DHT22;4247;48.550;8.822;2023-03-17T14:22:30;17.00;92.30
8420;DHT22;4247;48.550;8.822;2023-03-17T14:25:01;17.10;93.00
8420;DHT22;4247;48.550;8.822;2023-03-17T14:27:31;17.10;93.20
8420;DHT22;4247;48.550;8.822;2023-03-17T14:30:07;17.10;93.10
8420;DHT22;4247;48.550;8.822;2023-03-17T14:32:37;17.10;91.40
8420;DHT22;4247;48.550;8.822;2023-03-17T14:35:04;17.10;90.60
8420;DHT22;4247;48.550;8.822;2023-03-17T14:37:31;17.10;92.50
8420;DHT22;4247;48.550;8.822;2023-03-17T14:39:58;17.20;93.40
8420;DHT22;4247;48.550;8.822;2023-03-17T14:42:27;17.20;93.00
8420;DHT22;4247;48.550;8.822;2023-03-17T14:45:01;17.20;93.70
8420;DHT22;4247;48.550;8.822;2023-03-17T14:47:38;17.20;94.30
8420;DHT22;4247;48.550;8.822;2023-03-17T14:50:14;17.20;92.10
8420;DHT22;4247;48.550;8.822;2023-03-17T14:52:45;17.20;93.20
8420;DHT22;4247;48.550;8.822;2023-03-17T14:55:13;17.20;94.10
8420;DHT22;4247;48.550;8.822;2023-03-17T14:57:50;17.20;93.80
8420;DHT22;4247;48.550;8.822;2023-03-17T15:00:33;17.20;93.90
8420;DHT22;4247;48.550;8.822;2023-03-17T15:03:13;17.10;93.70
8420;DHT22;4247;48.550;8.822;2023-03-17T15:05:42;17.10;94.90
8420;DHT22;4247;48.550;8.822;2023-03-17T15:08:37;17.10;94.00
8420;DHT22;4247;48.550;8.822;2023-03-17T15:11:06;17.10;93.50
8420;DHT22;4247;48.550;8.822;2023-03-17T15:13:35;17.10;93.70
8420;DHT22;4247;48.550;8.822;2023-03-17T15:16:15;17.00;93.60
8420;DHT22;4247;48.550;8.822;2023-03-17T15:18:44;17.00;94.60
8420;DHT22;4247;48.550;8.822;2023-03-17T15:21:22;17.00;94.40
8420;DHT22;4247;48.550;8.822;2023-03-17T15:23:49;16.90;94.20
8420;DHT22;4247;48.550;8.822;2023-03-17T15:26:21;16.80;94.00
8420;DHT22;4247;48.550;8.822;2023-03-17T15:28:51;16.80;95.10
8420;DHT22;4247;48.550;8.822;2023-03-17T15:31:18;16.80;94.80
8420;DHT22;4247;48.550;8.822;2023-03-17T15:33:51;16.80;95.40
8420;DHT22;4247;48.550;8.822;2023-03-17T15:36:17;16.70;95.30
8420;DHT22;4247;48.550;8.822;2023-03-17T15:38:44;16.70;95.20
8420;DHT22;4247;48.550;8.822;2023-03-17T15:41:11;16.70;95.40
8420;DHT22;4247;48.550;8.822;2023-03-17T15:43:38;16.70;96.10
8420;DHT22;4247;48.550;8.822;2023-03-17T15:46:07;16.60;96.20
8420;DHT22;4247;48.550;8.822;2023-03-17T15:48:36;16.60;96.00
8420;DHT22;4247;48.550;8.822;2023-03-17T15:51:05;16.60;95.60
8420;DHT22;4247;48.550;8.822;2023-03-17T15:53:32;16.50;96.20
8420;DHT22;4247;48.550;8.822;2023-03-17T15:55:59;16.50;96.50
8420;DHT22;4247;48.550;8.822;2023-03-17T15:58:28;16.50;96.80
8420;DHT22;4247;48.550;8.822;2023-03-17T16:00:56;16.40;96.80
8420;DHT22;4247;48.550;8.822;2023-03-17T16:03:29;16.40;96.70
8420;DHT22;4247;48.550;8.822;2023-03-17T16:05:57;16.40;98.20
8420;DHT22;4247;48.550;8.822;2023-03-17T16:08:25;16.40;97.80
8420;DHT22;4247;48.550;8.822;2023-03-17T16:10:56;16.40;98.40
8420;DHT22;4247;48.550;8.822;2023-03-17T16:13:23;16.30;97.00
8420;DHT22;4247;48.550;8.822;2023-03-17T16:15:53;16.30;97.20
8420;DHT22;4247;48.550;8.822;2023-03-17T16:18:27;16.20;93.30
8420;DHT22;4247;48.550;8.822;2023-03-17T16:20:56;16.20;93.30
8420;DHT22;4247;48.550;8.822;2023-03-17T16:23:27;16.10;93.40
8420;DHT22;4247;48.550;8.822;2023-03-17T16:25:55;16.00;93.10
8420;DHT22;4247;48.550;8.822;2023-03-17T16:28:24;15.90;93.20
8420;DHT22;4247;48.550;8.822;2023-03-17T16:30:54;15.90;94.90
8420;DHT22;4247;48.550;8.822;2023-03-17T16:33:23;15.80;94.20
8420;DHT22;4247;48.550;8.822;2023-03-17T16:35:52;15.80;94.60
8420;DHT22;4247;48.550;8.822;2023-03-17T16:38:21;15.70;94.10
8420;DHT22;4247;48.550;8.822;2023-03-17T16:40:52;15.60;93.80